createdAt,value
2018-03-28T00:02:14.035Z,10.60
2018-03-28T00:04:42.321Z,9.80
2018-03-28T00:07:10.753Z,10.70
2018-03-28T00:09:38.512Z,11.30
2018-03-28T00:12:06.021Z,9.50
2018-03-28T00:14:34.309Z,10.93
2018-03-28T00:17:01.840Z,11.90
2018-03-28T00:19:29.405Z,11.05
2018-03-28T00:21:57.700Z,10.00
2018-03-28T00:24:25.215Z,10.00
2018-03-28T00:26:52.736Z,10.30
2018-03-28T00:29:20.267Z,10.60
2018-03-28T00:31:47.801Z,9.93
2018-03-28T00:34:15.324Z,11.15
2018-03-28T00:36:42.869Z,10.07
2018-03-28T00:39:10.373Z,9.35
2018-03-28T00:41:37.874Z,9.82
2018-03-28T00:44:06.177Z,10.20
2018-03-28T00:46:33.685Z,9.38
2018-03-28T00:49:01.211Z,9.27
2018-03-28T00:51:36.551Z,9.00
2018-03-28T00:54:04.085Z,10.07
2018-03-28T00:56:32.363Z,8.75
2018-03-28T00:59:00.664Z,9.15
2018-03-28T01:01:28.172Z,8.38
2018-03-28T01:03:55.697Z,8.40
2018-03-28T01:06:23.199Z,8.20
2018-03-28T01:08:51.467Z,8.05
2018-03-28T01:11:18.990Z,7.87
2018-03-28T01:13:46.544Z,8.70
2018-03-28T01:16:14.083Z,7.53
2018-03-28T01:18:41.596Z,7.40
2018-03-28T01:21:09.119Z,7.78
2018-03-28T01:23:36.624Z,8.40
2018-03-28T01:26:04.133Z,7.28
2018-03-28T01:28:31.663Z,7.37
2018-03-28T01:30:59.970Z,7.62
2018-03-28T01:33:27.528Z,7.85
2018-03-28T01:35:55.048Z,6.93
2018-03-28T01:38:22.993Z,8.02
2018-03-28T01:40:50.538Z,6.00
2018-03-28T01:43:18.061Z,7.53
2018-03-28T01:45:45.567Z,6.43
2018-03-28T01:48:13.083Z,6.65
2018-03-28T01:50:40.634Z,6.37
2018-03-28T01:53:08.899Z,6.32
2018-03-28T01:55:36.444Z,7.32
2018-03-28T01:58:03.969Z,5.75
2018-03-28T02:00:31.490Z,5.93
2018-03-28T02:02:58.988Z,5.80
2018-03-28T02:05:26.495Z,5.65
2018-03-28T02:07:54.007Z,5.93
2018-03-28T02:10:21.540Z,6.30
2018-03-28T02:12:49.110Z,6.10
2018-03-28T02:15:16.608Z,6.75
2018-03-28T02:17:44.180Z,5.18
2018-03-28T02:20:11.727Z,5.82
2018-03-28T02:22:39.240Z,5.55
2018-03-28T02:25:06.731Z,5.80
2018-03-28T02:27:34.772Z,5.55
2018-03-28T02:30:02.276Z,5.45
2018-03-28T02:32:29.954Z,5.25
2018-03-28T02:34:57.518Z,5.40
2018-03-28T02:37:25.013Z,4.78
2018-03-28T02:39:52.564Z,4.45
2018-03-28T02:42:20.068Z,5.00
2018-03-28T02:44:47.590Z,4.53
2018-03-28T02:47:15.841Z,4.87
2018-03-28T02:49:45.161Z,3.80
2018-03-28T02:52:13.914Z,4.40
2018-03-28T02:54:41.431Z,4.25
2018-03-28T02:57:08.983Z,3.83
2018-03-28T02:59:36.504Z,3.58
2018-03-28T03:02:04.033Z,3.50
2018-03-28T03:04:31.568Z,2.70
2018-03-28T03:06:59.090Z,3.60
2018-03-28T03:12:28.724Z,3.85
2018-03-28T03:14:57.007Z,3.25
2018-03-28T03:17:25.282Z,3.42
2018-03-28T03:19:53.032Z,3.05
2018-03-28T03:22:20.518Z,3.22
2018-03-28T03:24:48.025Z,3.45
2018-03-28T03:27:15.521Z,4.00
2018-03-28T03:29:43.082Z,3.67
2018-03-28T03:32:11.360Z,4.18
2018-03-28T03:34:39.656Z,3.85
2018-03-28T03:37:07.945Z,3.70
2018-03-28T03:39:35.451Z,3.55
2018-03-28T03:42:02.980Z,4.70
2018-03-28T03:44:30.504Z,3.70
2018-03-28T03:46:58.791Z,3.37
2018-03-28T03:49:26.289Z,3.30
2018-03-28T03:51:53.821Z,2.83
2018-03-28T03:54:21.343Z,4.22
2018-03-28T03:56:48.860Z,4.32
2018-03-28T03:59:16.355Z,3.20
2018-03-28T04:01:43.850Z,3.85
2018-03-28T04:04:11.387Z,3.78
2018-03-28T04:06:39.669Z,3.40
2018-03-28T04:09:07.963Z,4.00
2018-03-28T04:11:35.466Z,3.30
2018-03-28T04:14:03.556Z,3.80
2018-03-28T04:16:31.784Z,3.95
2018-03-28T04:18:59.315Z,5.30
2018-03-28T04:21:27.617Z,3.17
2018-03-28T04:23:55.116Z,3.62
2018-03-28T04:26:22.632Z,3.95
2018-03-28T04:28:50.141Z,3.97
2018-03-28T04:31:17.893Z,3.30
2018-03-28T04:33:45.451Z,3.33
2018-03-28T04:36:12.965Z,3.00
2018-03-28T04:38:41.235Z,3.75
2018-03-28T04:41:09.496Z,3.37
2018-03-28T04:43:37.005Z,3.67
2018-03-28T04:46:04.505Z,3.05
2018-03-28T04:48:32.006Z,3.50
2018-03-28T04:50:59.503Z,3.15
2018-03-28T04:53:27.667Z,3.08
2018-03-28T04:55:55.659Z,3.75
2018-03-28T04:58:23.256Z,3.53
2018-03-28T05:00:51.769Z,3.65
2018-03-28T05:03:19.510Z,3.62
2018-03-28T05:05:47.791Z,3.22
2018-03-28T05:08:16.066Z,3.58
2018-03-28T05:10:44.332Z,3.75
2018-03-28T05:13:12.632Z,3.10
2018-03-28T05:15:40.224Z,3.40
2018-03-28T05:18:07.701Z,3.33
2018-03-28T05:20:35.214Z,3.83
2018-03-28T05:23:02.744Z,3.15
2018-03-28T05:25:31.024Z,3.80
2018-03-28T05:27:59.300Z,3.83
2018-03-28T05:30:27.579Z,4.00
2018-03-28T05:32:55.069Z,4.10
2018-03-28T05:35:22.559Z,4.62
2018-03-28T05:37:50.083Z,4.03
2018-03-28T05:40:17.567Z,4.10
2018-03-28T05:42:45.093Z,4.43
2018-03-28T05:45:12.599Z,4.50
2018-03-28T05:47:40.095Z,4.22
2018-03-28T05:50:08.363Z,4.32
2018-03-28T05:52:35.875Z,4.45
2018-03-28T05:55:04.051Z,5.43
2018-03-28T05:57:31.585Z,4.62
2018-03-28T05:59:59.267Z,4.90
2018-03-28T06:02:26.931Z,4.78
2018-03-28T06:04:54.426Z,5.75
2018-03-28T06:07:22.040Z,4.95
2018-03-28T06:09:49.489Z,4.90
2018-03-28T06:12:17.032Z,5.53
2018-03-28T06:14:45.319Z,4.90
2018-03-28T06:17:13.812Z,7.87
2018-03-28T06:19:41.371Z,5.22
2018-03-28T06:22:08.880Z,5.22
2018-03-28T06:24:36.418Z,4.75
2018-03-28T06:27:04.755Z,4.82
2018-03-28T06:29:32.628Z,4.43
2018-03-28T06:32:00.180Z,5.40
2018-03-28T06:34:28.427Z,4.75
2018-03-28T06:36:55.953Z,5.70
2018-03-28T06:39:23.465Z,5.25
2018-03-28T06:41:51.001Z,5.00
2018-03-28T06:44:18.545Z,5.65
2018-03-28T06:46:46.101Z,7.15
2018-03-28T06:49:13.625Z,5.50
2018-03-28T06:51:41.895Z,4.90
2018-03-28T06:54:11.041Z,7.05
2018-03-28T06:56:38.567Z,6.50
2018-03-28T06:59:06.776Z,5.90
2018-03-28T07:01:35.044Z,6.10
2018-03-28T07:04:02.658Z,4.55
2018-03-28T07:06:31.001Z,4.90
2018-03-28T07:08:58.577Z,5.35
2018-03-28T07:11:26.115Z,5.55
2018-03-28T07:13:54.280Z,4.90
2018-03-28T07:16:21.819Z,4.70
2018-03-28T07:18:49.335Z,4.82
2018-03-28T07:21:16.877Z,4.97
2018-03-28T07:23:44.656Z,4.60
2018-03-28T07:26:12.200Z,4.60
2018-03-28T07:28:40.600Z,3.30
2018-03-28T07:31:08.173Z,4.68
2018-03-28T07:33:36.510Z,3.40
2018-03-28T07:36:04.851Z,3.60
2018-03-28T07:38:33.168Z,3.78
2018-03-28T07:41:00.704Z,3.55
2018-03-28T07:43:28.291Z,3.92
2018-03-28T07:45:56.264Z,4.10
2018-03-28T07:48:23.783Z,4.60
2018-03-28T07:50:51.304Z,4.25
2018-03-28T07:53:18.833Z,4.57
2018-03-28T07:55:46.400Z,4.10
2018-03-28T07:58:14.009Z,4.53
2018-03-28T08:00:41.578Z,3.75
2018-03-28T08:03:09.904Z,4.10
2018-03-28T08:05:37.782Z,3.70
2018-03-28T08:08:05.297Z,4.10
2018-03-28T08:10:32.851Z,3.50
2018-03-28T08:13:00.420Z,3.90
2018-03-28T08:15:27.969Z,3.92
2018-03-28T08:17:56.277Z,4.70
2018-03-28T08:20:24.746Z,4.70
2018-03-28T08:22:52.330Z,4.22
2018-03-28T08:25:19.863Z,4.35
2018-03-28T08:27:47.372Z,4.22
2018-03-28T08:30:15.716Z,4.40
2018-03-28T08:32:43.263Z,4.35
2018-03-28T08:35:10.810Z,3.62
2018-03-28T08:37:38.426Z,4.22
2018-03-28T08:40:05.988Z,4.37
2018-03-28T08:42:33.561Z,4.53
2018-03-28T08:45:01.099Z,3.90
2018-03-28T08:47:28.718Z,4.28
2018-03-28T08:49:56.306Z,4.32
2018-03-28T08:52:23.984Z,4.15
2018-03-28T08:54:51.511Z,3.60
2018-03-28T08:57:19.085Z,4.13
2018-03-28T08:59:46.643Z,3.90
2018-03-28T09:02:14.193Z,3.70
2018-03-28T09:04:41.747Z,4.20
2018-03-28T09:07:09.322Z,4.20
2018-03-28T09:09:36.897Z,3.40
2018-03-28T09:12:04.423Z,3.70
2018-03-28T09:14:32.009Z,3.03
2018-03-28T09:16:59.553Z,3.37
2018-03-28T09:19:27.142Z,3.60
2018-03-28T09:21:54.691Z,3.33
2018-03-28T09:24:22.242Z,2.73
2018-03-28T09:26:49.777Z,2.40
2018-03-28T09:29:17.328Z,2.47
2018-03-28T09:31:44.885Z,3.72
2018-03-28T09:34:12.448Z,2.40
2018-03-28T09:36:40.033Z,2.70
2018-03-28T09:39:07.712Z,2.50
2018-03-28T09:41:35.232Z,2.20
2018-03-28T09:44:02.791Z,2.17
2018-03-28T09:46:30.327Z,2.30
2018-03-28T09:48:57.892Z,2.40
2018-03-28T09:51:25.464Z,1.80
2018-03-28T09:53:53.766Z,2.10
2018-03-28T09:56:21.308Z,2.22
2018-03-28T09:58:49.608Z,2.00
2018-03-28T10:01:23.464Z,1.73
2018-03-28T10:03:50.973Z,2.27
2018-03-28T10:06:20.091Z,1.65
2018-03-28T10:08:47.659Z,1.67
2018-03-28T10:11:15.224Z,1.33
2018-03-28T10:13:42.809Z,1.80
2018-03-28T10:16:10.341Z,1.07
2018-03-28T10:18:37.910Z,1.02
2018-03-28T10:21:05.462Z,1.33
2018-03-28T10:23:33.069Z,1.20
2018-03-28T10:26:00.639Z,1.60
2018-03-28T10:28:29.004Z,1.43
2018-03-28T10:30:56.553Z,1.30
2018-03-28T10:33:24.208Z,1.20
2018-03-28T10:35:51.820Z,1.00
2018-03-28T10:38:20.136Z,1.30
2018-03-28T10:40:47.730Z,1.30
2018-03-28T10:43:15.250Z,1.30
2018-03-28T10:45:42.803Z,0.90
2018-03-28T10:48:10.439Z,0.90
2018-03-28T10:50:38.793Z,1.17
2018-03-28T10:53:06.347Z,1.20
2018-03-28T10:55:33.899Z,1.47
2018-03-28T10:58:01.415Z,1.10
2018-03-28T11:00:29.545Z,1.47
2018-03-28T11:02:57.705Z,1.60
2018-03-28T11:05:25.261Z,1.10
2018-03-28T11:07:52.814Z,1.10
2018-03-28T11:10:20.346Z,1.20
2018-03-28T11:12:47.919Z,1.40
2018-03-28T11:15:15.527Z,1.30
2018-03-28T11:17:43.087Z,1.10
2018-03-28T11:20:10.581Z,1.63
2018-03-28T11:22:39.640Z,1.43
2018-03-28T11:25:07.193Z,1.10
2018-03-28T11:27:34.700Z,1.23
2018-03-28T11:30:02.251Z,1.70
2018-03-28T11:32:30.680Z,1.50
2018-03-28T11:34:58.236Z,1.53
2018-03-28T11:37:25.745Z,1.53
2018-03-28T11:39:53.324Z,1.60
2018-03-28T11:42:20.857Z,2.83
2018-03-28T11:44:48.410Z,1.37
2018-03-28T11:47:15.953Z,1.60
2018-03-28T11:49:43.500Z,1.33
2018-03-28T11:52:11.050Z,1.83
2018-03-28T11:54:38.635Z,1.90
2018-03-28T11:57:06.196Z,2.08
2018-03-28T11:59:33.733Z,1.80
2018-03-28T12:02:01.285Z,2.07
2018-03-28T12:04:28.803Z,1.77
2018-03-28T12:06:57.149Z,1.60
2018-03-28T12:09:25.040Z,2.03
2018-03-28T12:11:52.585Z,1.90
2018-03-28T12:14:20.181Z,2.23
2018-03-28T12:16:47.658Z,1.87
2018-03-28T12:19:15.251Z,2.33
2018-03-28T12:21:42.777Z,2.05
2018-03-28T12:24:10.317Z,2.50
2018-03-28T12:26:38.601Z,2.27
2018-03-28T12:29:06.214Z,2.42
2018-03-28T12:31:33.724Z,2.40
2018-03-28T12:34:01.312Z,3.97
2018-03-28T12:36:28.878Z,3.70
2018-03-28T12:38:56.403Z,4.00
2018-03-28T12:41:23.973Z,3.27
2018-03-28T12:43:51.512Z,4.80
2018-03-28T12:46:19.133Z,4.03
2018-03-28T12:48:46.631Z,4.50
2018-03-28T12:51:14.875Z,4.70
2018-03-28T12:53:42.498Z,3.33
2018-03-28T12:56:10.074Z,3.10
2018-03-28T12:58:37.643Z,2.60
2018-03-28T13:01:06.383Z,2.40
2018-03-28T13:03:34.701Z,2.60
2018-03-28T13:06:02.247Z,1.67
2018-03-28T13:08:29.781Z,2.40
2018-03-28T13:10:58.112Z,3.67
2018-03-28T13:13:25.647Z,3.10
2018-03-28T13:15:53.956Z,3.77
2018-03-28T13:18:22.341Z,2.65
2018-03-28T13:20:49.853Z,2.20
2018-03-28T13:23:18.161Z,2.37
2018-03-28T13:25:45.693Z,2.50
2018-03-28T13:28:13.270Z,2.92
2018-03-28T13:30:40.811Z,2.97
2018-03-28T13:33:08.316Z,2.10
2018-03-28T13:35:35.873Z,1.90
2018-03-28T13:38:03.422Z,1.70
2018-03-28T13:40:30.968Z,1.60
2018-03-28T13:42:59.178Z,1.42
2018-03-28T13:45:26.715Z,1.62
2018-03-28T13:47:54.285Z,1.70
2018-03-28T13:50:21.805Z,1.47
2018-03-28T13:52:50.237Z,1.12
2018-03-28T13:55:17.788Z,1.43
2018-03-28T13:57:45.343Z,1.27
2018-03-28T14:00:12.857Z,1.25
2018-03-28T14:02:41.163Z,1.48
2018-03-28T14:05:08.663Z,1.00
2018-03-28T14:07:36.255Z,0.98
2018-03-28T14:10:04.536Z,0.85
2018-03-28T14:12:32.992Z,1.40
2018-03-28T14:15:00.533Z,1.30
2018-03-28T14:17:28.964Z,1.37
2018-03-28T14:19:56.500Z,1.10
2018-03-28T14:22:24.099Z,1.33
2018-03-28T14:24:52.334Z,1.50
2018-03-28T14:27:19.852Z,1.15
2018-03-28T14:29:47.381Z,1.23
2018-03-28T14:32:15.706Z,1.52
2018-03-28T14:34:43.232Z,1.50
2018-03-28T14:37:10.752Z,1.20
2018-03-28T14:39:38.256Z,1.30
2018-03-28T14:42:06.669Z,1.33
2018-03-28T14:44:34.516Z,1.15
2018-03-28T14:47:02.064Z,1.33
2018-03-28T14:49:29.576Z,1.67
2018-03-28T14:51:57.134Z,1.13
2018-03-28T14:54:24.659Z,1.52
2018-03-28T14:56:52.183Z,1.20
2018-03-28T14:59:20.468Z,1.10
2018-03-28T15:01:47.998Z,1.30
2018-03-28T15:04:15.540Z,1.10
2018-03-28T15:06:43.054Z,1.27
2018-03-28T15:09:10.612Z,1.23
2018-03-28T15:11:38.130Z,1.33
2018-03-28T15:14:05.688Z,1.45
2018-03-28T15:16:33.225Z,1.20
2018-03-28T15:19:01.573Z,1.10
2018-03-28T15:21:29.101Z,1.20
2018-03-28T15:23:56.651Z,1.00
2018-03-28T15:26:24.217Z,1.20
2018-03-28T15:28:51.704Z,1.27
2018-03-28T15:31:19.241Z,1.40
2018-03-28T15:33:46.814Z,1.50
2018-03-28T15:36:14.398Z,0.97
2018-03-28T15:38:41.981Z,1.27
2018-03-28T15:41:09.528Z,1.05
2018-03-28T15:43:37.033Z,0.98
2018-03-28T15:46:04.576Z,1.85
2018-03-28T15:48:32.119Z,1.12
2018-03-28T15:50:59.699Z,1.20
2018-03-28T15:53:27.216Z,1.40
2018-03-28T15:55:54.725Z,1.40
2018-03-28T15:58:22.279Z,1.30
2018-03-28T16:00:49.824Z,1.30
2018-03-28T16:03:17.380Z,1.10
2018-03-28T16:05:44.975Z,1.00
2018-03-28T16:08:12.528Z,1.30
2018-03-28T16:10:40.060Z,1.92
2018-03-28T16:13:07.613Z,1.23
2018-03-28T16:15:35.141Z,1.10
2018-03-28T16:18:03.444Z,1.30
2018-03-28T16:20:31.005Z,1.40
2018-03-28T16:22:58.552Z,1.45
2018-03-28T16:25:26.092Z,1.25
2018-03-28T16:27:54.029Z,1.25
2018-03-28T16:30:21.556Z,1.10
2018-03-28T16:32:49.065Z,1.00
2018-03-28T16:35:16.596Z,1.27
2018-03-28T16:37:44.124Z,1.12
2018-03-28T16:40:11.658Z,1.12
2018-03-28T16:42:40.037Z,1.35
2018-03-28T16:45:07.588Z,1.05
2018-03-28T16:47:35.686Z,1.20
2018-03-28T16:50:03.261Z,1.10
2018-03-28T16:52:30.736Z,1.25
2018-03-28T16:54:58.253Z,1.08
2018-03-28T16:57:25.792Z,1.10
2018-03-28T16:59:53.592Z,1.37
2018-03-28T17:02:21.452Z,0.90
2018-03-28T17:04:57.336Z,1.00
2018-03-28T17:07:26.816Z,1.00
2018-03-28T17:09:58.743Z,0.88
2018-03-28T17:12:30.989Z,0.90
2018-03-28T17:14:59.758Z,0.90
2018-03-28T17:17:35.500Z,1.00
2018-03-28T17:20:06.954Z,1.42
2018-03-28T17:22:42.916Z,1.15
2018-03-28T17:25:17.219Z,1.10
2018-03-28T17:27:58.815Z,0.90
2018-03-28T17:30:26.566Z,0.90
2018-03-28T17:32:56.113Z,1.10
2018-03-28T17:35:23.799Z,1.55
2018-03-28T17:37:51.341Z,1.73
2018-03-28T17:40:19.002Z,1.23
2018-03-28T17:42:46.691Z,1.40
2018-03-28T17:45:18.675Z,1.05
2018-03-28T17:47:46.470Z,1.00
2018-03-28T17:50:14.015Z,1.23
2018-03-28T17:52:42.366Z,1.15
2018-03-28T17:55:09.951Z,1.25
2018-03-28T17:57:37.587Z,1.40
2018-03-28T18:00:05.301Z,1.05
2018-03-28T18:02:33.595Z,1.15
2018-03-28T18:05:01.099Z,1.20
2018-03-28T18:07:28.637Z,0.88
2018-03-28T18:09:56.170Z,1.30
2018-03-28T18:12:23.908Z,1.35
2018-03-28T18:14:52.206Z,0.80
2018-03-28T18:17:19.715Z,0.90
2018-03-28T18:19:47.269Z,1.25
2018-03-28T18:22:14.780Z,1.33
2018-03-28T18:24:43.074Z,1.35
2018-03-28T18:27:10.646Z,1.35
2018-03-28T18:29:38.181Z,1.45
2018-03-28T18:32:05.769Z,1.02
2018-03-28T18:34:33.353Z,1.12
2018-03-28T18:37:00.895Z,1.37
2018-03-28T18:39:28.420Z,2.22
2018-03-28T18:41:56.704Z,1.20
2018-03-28T18:44:24.232Z,1.80
2018-03-28T18:46:51.768Z,1.27
2018-03-28T18:49:19.267Z,2.08
2018-03-28T18:51:47.543Z,1.50
2018-03-28T18:54:15.933Z,1.50
2018-03-28T18:56:44.188Z,1.00
2018-03-28T18:59:11.711Z,1.20
2018-03-28T19:01:39.258Z,1.12
2018-03-28T19:04:06.818Z,1.40
2018-03-28T19:06:34.335Z,1.30
2018-03-28T19:09:02.641Z,1.70
2018-03-28T19:11:30.152Z,1.15
2018-03-28T19:13:57.712Z,1.15
2018-03-28T19:16:25.277Z,1.00
2018-03-28T19:18:52.788Z,1.33
2018-03-28T19:21:20.319Z,0.73
2018-03-28T19:23:47.853Z,0.95
2018-03-28T19:26:15.387Z,1.00
2018-03-28T19:28:42.892Z,0.90
2018-03-28T19:31:11.186Z,1.00
2018-03-28T19:33:39.500Z,1.02
2018-03-28T19:36:07.058Z,0.90
2018-03-28T19:38:34.603Z,1.10
2018-03-28T19:41:02.127Z,1.20
2018-03-28T19:43:30.796Z,0.98
2018-03-28T19:45:58.318Z,1.10
2018-03-28T19:48:25.858Z,0.80
2018-03-28T19:50:53.382Z,1.20
2018-03-28T19:53:20.872Z,1.10
2018-03-28T19:55:48.455Z,0.95
2018-03-28T19:58:15.966Z,0.80
2018-03-28T20:00:43.472Z,0.88
2018-03-28T20:03:10.990Z,1.00
2018-03-28T20:05:38.579Z,1.00
2018-03-28T20:08:06.223Z,0.80
2018-03-28T20:10:34.484Z,1.00
2018-03-28T20:13:02.955Z,1.23
2018-03-28T20:15:30.460Z,1.00
2018-03-28T20:17:57.971Z,1.05
2018-03-28T20:20:25.497Z,1.75
2018-03-28T20:22:53.032Z,2.05
2018-03-28T20:25:20.547Z,1.20
2018-03-28T20:27:48.039Z,1.58
2018-03-28T20:30:16.327Z,1.50
2018-03-28T20:32:44.596Z,1.70
2018-03-28T20:35:12.876Z,1.50
2018-03-28T20:37:41.149Z,1.52
2018-03-28T20:40:09.445Z,1.20
2018-03-28T20:42:36.943Z,1.83
2018-03-28T20:45:04.450Z,1.58
2018-03-28T20:47:31.964Z,2.20
2018-03-28T20:49:59.477Z,1.60
2018-03-28T20:52:27.747Z,1.37
2018-03-28T20:54:56.020Z,2.00
2018-03-28T20:57:24.301Z,1.80
2018-03-28T20:59:51.848Z,1.58
2018-03-28T21:02:20.774Z,1.65
2018-03-28T21:04:48.711Z,1.30
2018-03-28T21:07:17.011Z,1.20
2018-03-28T21:09:44.517Z,1.50
2018-03-28T21:12:12.009Z,1.50
2018-03-28T21:14:39.565Z,1.40
2018-03-28T21:17:07.838Z,1.27
2018-03-28T21:19:35.357Z,1.80
2018-03-28T21:22:02.856Z,1.40
2018-03-28T21:24:30.379Z,1.12
2018-03-28T21:26:57.894Z,1.67
2018-03-28T21:29:26.177Z,1.40
2018-03-28T21:31:54.453Z,1.40
2018-03-28T21:34:22.762Z,1.20
2018-03-28T21:36:51.012Z,1.05
2018-03-28T21:39:19.364Z,1.20
2018-03-28T21:41:46.889Z,1.25
2018-03-28T21:44:14.397Z,1.50
2018-03-28T21:46:41.920Z,2.15
2018-03-28T21:49:09.461Z,1.33
2018-03-28T21:51:36.978Z,1.10
2018-03-28T21:54:04.526Z,1.20
2018-03-28T21:56:32.819Z,1.30
2018-03-28T21:59:01.113Z,1.40
2018-03-28T22:01:28.603Z,1.23
2018-03-28T22:03:56.116Z,0.90
2018-03-28T22:06:24.401Z,1.25
2018-03-28T22:08:52.682Z,1.23
2018-03-28T22:11:20.205Z,1.30
2018-03-28T22:13:48.824Z,1.23
2018-03-28T22:16:17.083Z,1.45
2018-03-28T22:18:45.377Z,1.10
2018-03-28T22:21:13.638Z,1.15
2018-03-28T22:23:42.811Z,1.30
2018-03-28T22:26:10.312Z,1.48
2018-03-28T22:28:38.570Z,1.50
2018-03-28T22:31:06.102Z,1.40
2018-03-28T22:33:33.593Z,1.87
2018-03-28T22:36:01.882Z,1.77
2018-03-28T22:38:29.599Z,1.95
2018-03-28T22:40:57.123Z,1.98
2018-03-28T22:43:24.629Z,2.40
2018-03-28T22:45:52.152Z,2.25
2018-03-28T22:48:19.672Z,2.33
2018-03-28T22:50:47.196Z,2.22
2018-03-28T22:53:14.726Z,2.42
2018-03-28T22:55:42.225Z,2.40
2018-03-28T22:58:09.739Z,2.28
2018-03-28T23:00:37.224Z,2.28
2018-03-28T23:03:05.188Z,2.10
2018-03-28T23:05:32.684Z,2.10
2018-03-28T23:08:00.210Z,2.15
2018-03-28T23:10:27.711Z,2.00
2018-03-28T23:12:55.231Z,2.15
2018-03-28T23:15:22.729Z,2.40
2018-03-28T23:17:50.232Z,2.20
2018-03-28T23:20:17.786Z,2.28
2018-03-28T23:22:45.284Z,2.25
2018-03-28T23:25:12.799Z,2.30
2018-03-28T23:27:40.291Z,2.22
2018-03-28T23:30:07.825Z,2.60
2018-03-28T23:32:35.336Z,2.10
2018-03-28T23:35:02.839Z,2.00
2018-03-28T23:37:30.368Z,2.42
2018-03-28T23:39:58.834Z,2.45
2018-03-28T23:42:26.369Z,2.65
2018-03-28T23:44:53.882Z,2.50
2018-03-28T23:47:22.461Z,2.45
2018-03-28T23:49:50.764Z,2.70
2018-03-28T23:52:18.292Z,2.67
2018-03-28T23:54:46.567Z,2.33
2018-03-28T23:57:14.061Z,2.80
2018-03-28T23:59:41.589Z,2.55
